sensor_id;sensor_type;location;lat;lon;timestamp;pressure;altitude;pressure_sealevel;temperature
47484;BMP280;54076;50.322;18.650;2024-02-15T00:00:07;99351.19;;;10.99
47484;BMP280;54076;50.322;18.650;2024-02-15T00:05:08;99353.25;;;10.97
47484;BMP280;54076;50.322;18.650;2024-02-15T00:10:09;99360.77;;;11.09
47484;BMP280;54076;50.322;18.650;2024-02-15T00:15:10;99364.37;;;11.03
47484;BMP280;54076;50.322;18.650;2024-02-15T00:20:12;99370.14;;;11.08
47484;BMP280;54076;50.322;18.650;2024-02-15T00:25:13;99375.09;;;11.01
47484;BMP280;54076;50.322;18.650;2024-02-15T00:30:14;99370.55;;;11.05
47484;BMP280;54076;50.322;18.650;2024-02-15T00:35:17;99380.81;;;11.07
47484;BMP280;54076;50.322;18.650;2024-02-15T00:40:19;99383.59;;;10.98
47484;BMP280;54076;50.322;18.650;2024-02-15T00:45:21;99385.86;;;10.88
47484;BMP280;54076;50.322;18.650;2024-02-15T00:50:22;99387.11;;;11.04
47484;BMP280;54076;50.322;18.650;2024-02-15T00:55:23;99387.75;;;10.81
47484;BMP280;54076;50.322;18.650;2024-02-15T01:00:23;99387.02;;;10.82
47484;BMP280;54076;50.322;18.650;2024-02-15T01:05:24;99390.23;;;10.90
47484;BMP280;54076;50.322;18.650;2024-02-15T01:10:25;99387.41;;;11.03
47484;BMP280;54076;50.322;18.650;2024-02-15T01:15:27;99380.31;;;10.95
47484;BMP280;54076;50.322;18.650;2024-02-15T01:20:28;99370.45;;;10.92
47484;BMP280;54076;50.322;18.650;2024-02-15T01:25:29;99367.42;;;10.99
47484;BMP280;54076;50.322;18.650;2024-02-15T01:30:30;99363.29;;;10.97
47484;BMP280;54076;50.322;18.650;2024-02-15T01:35:32;99363.36;;;10.95
47484;BMP280;54076;50.322;18.650;2024-02-15T01:40:33;99356.02;;;11.03
47484;BMP280;54076;50.322;18.650;2024-02-15T01:45:34;99355.18;;;11.12
47484;BMP280;54076;50.322;18.650;2024-02-15T01:50:35;99351.62;;;11.00
47484;BMP280;54076;50.322;18.650;2024-02-15T01:55:37;99352.21;;;11.09
47484;BMP280;54076;50.322;18.650;2024-02-15T02:00:38;99349.13;;;11.03
47484;BMP280;54076;50.322;18.650;2024-02-15T02:05:42;99340.92;;;11.15
47484;BMP280;54076;50.322;18.650;2024-02-15T02:10:43;99335.73;;;11.18
47484;BMP280;54076;50.322;18.650;2024-02-15T02:15:44;99331.89;;;10.91
47484;BMP280;54076;50.322;18.650;2024-02-15T02:20:44;99325.34;;;11.00
47484;BMP280;54076;50.322;18.650;2024-02-15T02:25:46;99318.09;;;11.01
47484;BMP280;54076;50.322;18.650;2024-02-15T02:30:50;99317.36;;;11.10
47484;BMP280;54076;50.322;18.650;2024-02-15T02:35:51;99315.21;;;11.00
47484;BMP280;54076;50.322;18.650;2024-02-15T02:40:53;99314.40;;;10.98
47484;BMP280;54076;50.322;18.650;2024-02-15T02:45:53;99322.23;;;10.83
47484;BMP280;54076;50.322;18.650;2024-02-15T02:50:54;99316.95;;;10.95
47484;BMP280;54076;50.322;18.650;2024-02-15T02:55:56;99314.42;;;11.05
47484;BMP280;54076;50.322;18.650;2024-02-15T03:00:57;99315.91;;;11.05
47484;BMP280;54076;50.322;18.650;2024-02-15T03:06:01;99314.64;;;11.14
47484;BMP280;54076;50.322;18.650;2024-02-15T03:11:02;99322.45;;;11.10
47484;BMP280;54076;50.322;18.650;2024-02-15T03:16:04;99324.97;;;11.10
47484;BMP280;54076;50.322;18.650;2024-02-15T03:21:06;99323.86;;;11.10
47484;BMP280;54076;50.322;18.650;2024-02-15T03:26:08;99326.95;;;11.13
47484;BMP280;54076;50.322;18.650;2024-02-15T03:31:09;99324.74;;;11.15
47484;BMP280;54076;50.322;18.650;2024-02-15T03:36:10;99329.50;;;11.14
47484;BMP280;54076;50.322;18.650;2024-02-15T03:41:12;99327.94;;;11.15
47484;BMP280;54076;50.322;18.650;2024-02-15T03:46:13;99323.94;;;11.20
47484;BMP280;54076;50.322;18.650;2024-02-15T03:51:18;99317.84;;;11.17
47484;BMP280;54076;50.322;18.650;2024-02-15T03:56:23;99323.79;;;11.18
47484;BMP280;54076;50.322;18.650;2024-02-15T04:01:24;99324.56;;;11.03
47484;BMP280;54076;50.322;18.650;2024-02-15T04:06:27;99327.27;;;10.85
47484;BMP280;54076;50.322;18.650;2024-02-15T04:11:31;99327.39;;;10.82
47484;BMP280;54076;50.322;18.650;2024-02-15T04:16:34;99316.46;;;10.72
47484;BMP280;54076;50.322;18.650;2024-02-15T04:21:36;99318.83;;;10.69
47484;BMP280;54076;50.322;18.650;2024-02-15T04:26:38;99322.27;;;10.67
47484;BMP280;54076;50.322;18.650;2024-02-15T04:31:39;99321.15;;;10.79
47484;BMP280;54076;50.322;18.650;2024-02-15T04:36:40;99326.96;;;10.84
47484;BMP280;54076;50.322;18.650;2024-02-15T04:41:41;99327.04;;;10.78
47484;BMP280;54076;50.322;18.650;2024-02-15T04:46:42;99326.63;;;10.78
47484;BMP280;54076;50.322;18.650;2024-02-15T04:51:46;99329.85;;;10.73
47484;BMP280;54076;50.322;18.650;2024-02-15T04:56:48;99324.47;;;10.65
47484;BMP280;54076;50.322;18.650;2024-02-15T05:01:49;99329.68;;;10.73
47484;BMP280;54076;50.322;18.650;2024-02-15T05:06:51;99332.59;;;10.83
47484;BMP280;54076;50.322;18.650;2024-02-15T05:11:53;99337.73;;;10.67
47484;BMP280;54076;50.322;18.650;2024-02-15T05:16:54;99338.95;;;10.69
47484;BMP280;54076;50.322;18.650;2024-02-15T05:21:55;99340.88;;;10.57
47484;BMP280;54076;50.322;18.650;2024-02-15T05:26:56;99349.60;;;10.47
47484;BMP280;54076;50.322;18.650;2024-02-15T05:31:57;99347.84;;;10.36
47484;BMP280;54076;50.322;18.650;2024-02-15T05:36:57;99347.33;;;10.24
47484;BMP280;54076;50.322;18.650;2024-02-15T05:41:59;99353.73;;;10.22
47484;BMP280;54076;50.322;18.650;2024-02-15T05:47:01;99361.73;;;10.20
47484;BMP280;54076;50.322;18.650;2024-02-15T05:52:03;99356.36;;;10.09
47484;BMP280;54076;50.322;18.650;2024-02-15T05:57:06;99360.62;;;10.06
47484;BMP280;54076;50.322;18.650;2024-02-15T06:02:07;99360.33;;;10.12
47484;BMP280;54076;50.322;18.650;2024-02-15T06:07:08;99363.00;;;10.17
47484;BMP280;54076;50.322;18.650;2024-02-15T06:12:10;99368.98;;;10.17
47484;BMP280;54076;50.322;18.650;2024-02-15T06:17:11;99376.98;;;10.06
47484;BMP280;54076;50.322;18.650;2024-02-15T06:22:12;99377.09;;;10.10
47484;BMP280;54076;50.322;18.650;2024-02-15T06:27:13;99380.45;;;10.08
47484;BMP280;54076;50.322;18.650;2024-02-15T06:32:16;99379.70;;;10.17
47484;BMP280;54076;50.322;18.650;2024-02-15T06:37:39;99382.42;;;10.18
47484;BMP280;54076;50.322;18.650;2024-02-15T06:42:59;99383.50;;;10.36
47484;BMP280;54076;50.322;18.650;2024-02-15T06:48:00;99386.53;;;10.47
47484;BMP280;54076;50.322;18.650;2024-02-15T06:53:01;99390.55;;;10.56
47484;BMP280;54076;50.322;18.650;2024-02-15T06:58:04;99392.06;;;10.80
47484;BMP280;54076;50.322;18.650;2024-02-15T07:03:06;99396.53;;;10.86
47484;BMP280;54076;50.322;18.650;2024-02-15T07:08:09;99397.38;;;10.48
47484;BMP280;54076;50.322;18.650;2024-02-15T07:13:16;99402.77;;;10.41
47484;BMP280;54076;50.322;18.650;2024-02-15T07:18:17;99401.73;;;10.64
47484;BMP280;54076;50.322;18.650;2024-02-15T07:23:19;99400.58;;;10.70
47484;BMP280;54076;50.322;18.650;2024-02-15T07:28:21;99408.33;;;10.93
47484;BMP280;54076;50.322;18.650;2024-02-15T07:33:23;99402.59;;;11.17
47484;BMP280;54076;50.322;18.650;2024-02-15T07:38:24;99401.39;;;11.13
47484;BMP280;54076;50.322;18.650;2024-02-15T07:43:27;99403.01;;;11.22
47484;BMP280;54076;50.322;18.650;2024-02-15T07:48:28;99405.31;;;11.09
47484;BMP280;54076;50.322;18.650;2024-02-15T07:53:29;99395.06;;;11.03
47484;BMP280;54076;50.322;18.650;2024-02-15T07:58:30;99387.33;;;11.22
47484;BMP280;54076;50.322;18.650;2024-02-15T08:03:32;99381.45;;;11.44
47484;BMP280;54076;50.322;18.650;2024-02-15T08:08:34;99384.33;;;11.31
47484;BMP280;54076;50.322;18.650;2024-02-15T08:13:36;99378.77;;;11.35
47484;BMP280;54076;50.322;18.650;2024-02-15T08:18:39;99380.84;;;11.41
47484;BMP280;54076;50.322;18.650;2024-02-15T08:23:40;99385.02;;;11.74
47484;BMP280;54076;50.322;18.650;2024-02-15T08:28:41;99383.10;;;11.89
47484;BMP280;54076;50.322;18.650;2024-02-15T08:33:43;99372.71;;;11.80
47484;BMP280;54076;50.322;18.650;2024-02-15T08:38:45;99371.00;;;12.01
47484;BMP280;54076;50.322;18.650;2024-02-15T08:43:47;99373.81;;;11.82
47484;BMP280;54076;50.322;18.650;2024-02-15T08:48:50;99378.60;;;11.92
47484;BMP280;54076;50.322;18.650;2024-02-15T08:53:52;99380.46;;;11.94
47484;BMP280;54076;50.322;18.650;2024-02-15T08:58:53;99383.83;;;12.09
47484;BMP280;54076;50.322;18.650;2024-02-15T09:03:54;99392.64;;;12.36
47484;BMP280;54076;50.322;18.650;2024-02-15T09:08:54;99389.27;;;12.36
47484;BMP280;54076;50.322;18.650;2024-02-15T09:13:57;99394.66;;;13.32
47484;BMP280;54076;50.322;18.650;2024-02-15T09:18:58;99393.56;;;13.83
47484;BMP280;54076;50.322;18.650;2024-02-15T09:24:01;99389.33;;;13.15
47484;BMP280;54076;50.322;18.650;2024-02-15T09:29:02;99389.08;;;13.10
47484;BMP280;54076;50.322;18.650;2024-02-15T09:34:03;99385.48;;;13.23
47484;BMP280;54076;50.322;18.650;2024-02-15T09:39:07;99382.15;;;13.41
47484;BMP280;54076;50.322;18.650;2024-02-15T09:44:08;99384.46;;;13.35
47484;BMP280;54076;50.322;18.650;2024-02-15T09:49:11;99392.16;;;13.47
47484;BMP280;54076;50.322;18.650;2024-02-15T09:54:14;99394.73;;;13.84
47484;BMP280;54076;50.322;18.650;2024-02-15T09:59:23;99394.98;;;13.74
47484;BMP280;54076;50.322;18.650;2024-02-15T10:04:24;99384.79;;;13.87
47484;BMP280;54076;50.322;18.650;2024-02-15T10:09:30;99381.29;;;14.12
47484;BMP280;54076;50.322;18.650;2024-02-15T10:14:32;99376.58;;;14.87
47484;BMP280;54076;50.322;18.650;2024-02-15T10:19:34;99375.45;;;15.24
47484;BMP280;54076;50.322;18.650;2024-02-15T10:24:36;99377.45;;;14.76
47484;BMP280;54076;50.322;18.650;2024-02-15T10:29:38;99376.48;;;14.89
47484;BMP280;54076;50.322;18.650;2024-02-15T10:34:44;99376.92;;;14.82
47484;BMP280;54076;50.322;18.650;2024-02-15T10:39:45;99370.17;;;15.12
47484;BMP280;54076;50.322;18.650;2024-02-15T10:44:48;99373.96;;;15.17
47484;BMP280;54076;50.322;18.650;2024-02-15T10:49:49;99371.52;;;14.76
47484;BMP280;54076;50.322;18.650;2024-02-15T10:54:56;99365.98;;;14.68
47484;BMP280;54076;50.322;18.650;2024-02-15T11:00:05;99359.31;;;15.08
47484;BMP280;54076;50.322;18.650;2024-02-15T11:05:12;99360.77;;;14.87
47484;BMP280;54076;50.322;18.650;2024-02-15T11:10:15;99357.62;;;15.31
47484;BMP280;54076;50.322;18.650;2024-02-15T11:15:46;99353.80;;;15.09
47484;BMP280;54076;50.322;18.650;2024-02-15T11:20:50;99351.90;;;14.98
47484;BMP280;54076;50.322;18.650;2024-02-15T11:25:51;99345.60;;;14.98
47484;BMP280;54076;50.322;18.650;2024-02-15T11:30:53;99341.18;;;14.67
47484;BMP280;54076;50.322;18.650;2024-02-15T11:36:15;99342.30;;;14.97
47484;BMP280;54076;50.322;18.650;2024-02-15T11:41:18;99337.85;;;15.28
47484;BMP280;54076;50.322;18.650;2024-02-15T11:46:21;99335.65;;;15.08
47484;BMP280;54076;50.322;18.650;2024-02-15T11:51:35;99338.89;;;15.23
47484;BMP280;54076;50.322;18.650;2024-02-15T12:01:44;99331.08;;;15.21
47484;BMP280;54076;50.322;18.650;2024-02-15T12:07:04;99330.73;;;15.34
47484;BMP280;54076;50.322;18.650;2024-02-15T12:12:24;99329.18;;;15.25
47484;BMP280;54076;50.322;18.650;2024-02-15T12:17:43;99316.61;;;15.87
47484;BMP280;54076;50.322;18.650;2024-02-15T12:23:03;99317.55;;;15.77
47484;BMP280;54076;50.322;18.650;2024-02-15T12:28:07;99311.84;;;15.70
47484;BMP280;54076;50.322;18.650;2024-02-15T12:33:10;99312.78;;;15.97
47484;BMP280;54076;50.322;18.650;2024-02-15T12:38:12;99308.26;;;16.34
47484;BMP280;54076;50.322;18.650;2024-02-15T12:43:17;99305.20;;;17.05
47484;BMP280;54076;50.322;18.650;2024-02-15T12:48:18;99304.09;;;16.50
47484;BMP280;54076;50.322;18.650;2024-02-15T12:53:22;99301.28;;;16.92
47484;BMP280;54076;50.322;18.650;2024-02-15T12:58:24;99297.71;;;16.52
47484;BMP280;54076;50.322;18.650;2024-02-15T13:03:27;99302.05;;;16.42
47484;BMP280;54076;50.322;18.650;2024-02-15T13:08:29;99295.22;;;16.38
47484;BMP280;54076;50.322;18.650;2024-02-15T13:13:30;99294.20;;;16.88
47484;BMP280;54076;50.322;18.650;2024-02-15T13:18:30;99287.28;;;16.90
47484;BMP280;54076;50.322;18.650;2024-02-15T13:23:31;99279.52;;;16.88
47484;BMP280;54076;50.322;18.650;2024-02-15T13:28:33;99284.21;;;16.85
47484;BMP280;54076;50.322;18.650;2024-02-15T13:33:34;99286.63;;;17.60
47484;BMP280;54076;50.322;18.650;2024-02-15T13:38:35;99277.05;;;18.49
47484;BMP280;54076;50.322;18.650;2024-02-15T13:43:37;99273.55;;;18.24
47484;BMP280;54076;50.322;18.650;2024-02-15T13:48:39;99270.46;;;18.48
47484;BMP280;54076;50.322;18.650;2024-02-15T13:53:40;99273.38;;;18.53
47484;BMP280;54076;50.322;18.650;2024-02-15T13:58:41;99268.77;;;17.78
47484;BMP280;54076;50.322;18.650;2024-02-15T14:03:43;99271.55;;;17.65
47484;BMP280;54076;50.322;18.650;2024-02-15T14:08:44;99270.14;;;17.03
47484;BMP280;54076;50.322;18.650;2024-02-15T14:13:44;99264.85;;;16.80
47484;BMP280;54076;50.322;18.650;2024-02-15T14:18:45;99268.27;;;16.41
47484;BMP280;54076;50.322;18.650;2024-02-15T14:23:46;99267.64;;;16.30
47484;BMP280;54076;50.322;18.650;2024-02-15T14:28:47;99270.77;;;16.17
47484;BMP280;54076;50.322;18.650;2024-02-15T14:33:50;99273.98;;;16.04
47484;BMP280;54076;50.322;18.650;2024-02-15T14:38:51;99273.13;;;16.00
47484;BMP280;54076;50.322;18.650;2024-02-15T14:43:54;99267.35;;;15.69
47484;BMP280;54076;50.322;18.650;2024-02-15T14:48:55;99264.00;;;15.65
47484;BMP280;54076;50.322;18.650;2024-02-15T14:53:58;99266.16;;;15.56
47484;BMP280;54076;50.322;18.650;2024-02-15T14:58:59;99270.61;;;15.51
47484;BMP280;54076;50.322;18.650;2024-02-15T15:04:00;99280.20;;;15.29
47484;BMP280;54076;50.322;18.650;2024-02-15T15:09:06;99277.33;;;15.19
47484;BMP280;54076;50.322;18.650;2024-02-15T15:14:26;99279.88;;;15.27
47484;BMP280;54076;50.322;18.650;2024-02-15T15:19:28;99276.14;;;15.06
47484;BMP280;54076;50.322;18.650;2024-02-15T15:24:29;99285.55;;;14.91
47484;BMP280;54076;50.322;18.650;2024-02-15T15:29:30;99290.55;;;14.80
47484;BMP280;54076;50.322;18.650;2024-02-15T15:34:31;99294.14;;;14.81
47484;BMP280;54076;50.322;18.650;2024-02-15T15:39:33;99300.30;;;14.62
47484;BMP280;54076;50.322;18.650;2024-02-15T15:44:37;99305.67;;;14.56
47484;BMP280;54076;50.322;18.650;2024-02-15T15:49:37;99303.76;;;14.51
47484;BMP280;54076;50.322;18.650;2024-02-15T15:54:40;99302.15;;;14.33
47484;BMP280;54076;50.322;18.650;2024-02-15T15:59:41;99308.66;;;14.25
47484;BMP280;54076;50.322;18.650;2024-02-15T16:04:47;99313.17;;;14.02
47484;BMP280;54076;50.322;18.650;2024-02-15T16:09:48;99319.69;;;13.91
47484;BMP280;54076;50.322;18.650;2024-02-15T16:14:49;99323.80;;;13.76
47484;BMP280;54076;50.322;18.650;2024-02-15T16:19:50;99334.41;;;13.73
47484;BMP280;54076;50.322;18.650;2024-02-15T16:24:52;99343.98;;;13.54
47484;BMP280;54076;50.322;18.650;2024-02-15T16:29:53;99346.64;;;13.54
47484;BMP280;54076;50.322;18.650;2024-02-15T16:34:55;99344.33;;;13.35
47484;BMP280;54076;50.322;18.650;2024-02-15T16:39:58;99346.77;;;13.08
47484;BMP280;54076;50.322;18.650;2024-02-15T16:44:59;99347.34;;;13.15
47484;BMP280;54076;50.322;18.650;2024-02-15T16:50:02;99352.14;;;13.08
47484;BMP280;54076;50.322;18.650;2024-02-15T16:55:06;99349.82;;;13.04
47484;BMP280;54076;50.322;18.650;2024-02-15T17:00:07;99351.32;;;12.94
47484;BMP280;54076;50.322;18.650;2024-02-15T17:05:09;99357.42;;;12.84
47484;BMP280;54076;50.322;18.650;2024-02-15T17:10:10;99361.42;;;12.69
47484;BMP280;54076;50.322;18.650;2024-02-15T17:15:11;99362.10;;;12.81
47484;BMP280;54076;50.322;18.650;2024-02-15T17:20:12;99365.31;;;12.63
47484;BMP280;54076;50.322;18.650;2024-02-15T17:25:16;99365.81;;;12.55
47484;BMP280;54076;50.322;18.650;2024-02-15T17:30:17;99368.27;;;12.44
47484;BMP280;54076;50.322;18.650;2024-02-15T17:35:19;99371.27;;;12.58
47484;BMP280;54076;50.322;18.650;2024-02-15T17:40:21;99371.07;;;12.63
47484;BMP280;54076;50.322;18.650;2024-02-15T17:45:22;99372.34;;;12.59
47484;BMP280;54076;50.322;18.650;2024-02-15T17:50:23;99373.27;;;12.50
47484;BMP280;54076;50.322;18.650;2024-02-15T17:55:26;99378.20;;;12.45
47484;BMP280;54076;50.322;18.650;2024-02-15T18:00:27;99381.48;;;12.34
47484;BMP280;54076;50.322;18.650;2024-02-15T18:05:29;99384.61;;;12.44
47484;BMP280;54076;50.322;18.650;2024-02-15T18:10:31;99390.35;;;12.31
47484;BMP280;54076;50.322;18.650;2024-02-15T18:15:33;99388.10;;;12.43
47484;BMP280;54076;50.322;18.650;2024-02-15T18:20:40;99385.31;;;12.34
47484;BMP280;54076;50.322;18.650;2024-02-15T18:25:42;99386.71;;;12.27
47484;BMP280;54076;50.322;18.650;2024-02-15T18:30:43;99385.92;;;12.26
47484;BMP280;54076;50.322;18.650;2024-02-15T18:35:47;99382.90;;;12.18
47484;BMP280;54076;50.322;18.650;2024-02-15T18:40:48;99384.41;;;12.03
47484;BMP280;54076;50.322;18.650;2024-02-15T18:45:50;99386.47;;;12.21
47484;BMP280;54076;50.322;18.650;2024-02-15T18:50:51;99388.70;;;12.16
47484;BMP280;54076;50.322;18.650;2024-02-15T18:55:52;99386.27;;;12.08
47484;BMP280;54076;50.322;18.650;2024-02-15T19:00:56;99384.45;;;12.13
47484;BMP280;54076;50.322;18.650;2024-02-15T19:05:57;99388.35;;;12.06
47484;BMP280;54076;50.322;18.650;2024-02-15T19:10:58;99387.42;;;12.13
47484;BMP280;54076;50.322;18.650;2024-02-15T19:15:59;99388.19;;;12.10
47484;BMP280;54076;50.322;18.650;2024-02-15T19:21:02;99388.66;;;12.02
47484;BMP280;54076;50.322;18.650;2024-02-15T19:26:08;99382.99;;;11.85
47484;BMP280;54076;50.322;18.650;2024-02-15T19:31:09;99387.48;;;11.87
47484;BMP280;54076;50.322;18.650;2024-02-15T19:36:11;99390.79;;;11.84
47484;BMP280;54076;50.322;18.650;2024-02-15T19:41:15;99393.85;;;11.63
47484;BMP280;54076;50.322;18.650;2024-02-15T19:46:20;99393.29;;;11.70
47484;BMP280;54076;50.322;18.650;2024-02-15T19:51:21;99388.77;;;11.71
47484;BMP280;54076;50.322;18.650;2024-02-15T19:56:24;99391.56;;;11.73
47484;BMP280;54076;50.322;18.650;2024-02-15T20:01:30;99390.38;;;11.63
47484;BMP280;54076;50.322;18.650;2024-02-15T20:06:32;99392.16;;;11.44
47484;BMP280;54076;50.322;18.650;2024-02-15T20:11:34;99388.71;;;11.48
47484;BMP280;54076;50.322;18.650;2024-02-15T20:16:37;99391.29;;;11.49
47484;BMP280;54076;50.322;18.650;2024-02-15T20:21:41;99391.07;;;11.46
47484;BMP280;54076;50.322;18.650;2024-02-15T20:26:42;99393.95;;;11.44
47484;BMP280;54076;50.322;18.650;2024-02-15T20:31:44;99391.10;;;11.42
47484;BMP280;54076;50.322;18.650;2024-02-15T20:36:46;99390.04;;;11.37
47484;BMP280;54076;50.322;18.650;2024-02-15T20:41:48;99391.34;;;11.39
47484;BMP280;54076;50.322;18.650;2024-02-15T20:46:50;99388.04;;;11.43
47484;BMP280;54076;50.322;18.650;2024-02-15T20:51:50;99381.23;;;11.36
47484;BMP280;54076;50.322;18.650;2024-02-15T20:56:52;99376.72;;;11.40
47484;BMP280;54076;50.322;18.650;2024-02-15T21:01:53;99376.06;;;11.31
47484;BMP280;54076;50.322;18.650;2024-02-15T21:06:55;99379.66;;;11.42
47484;BMP280;54076;50.322;18.650;2024-02-15T21:11:56;99378.17;;;11.34
47484;BMP280;54076;50.322;18.650;2024-02-15T21:16:57;99372.52;;;11.35
47484;BMP280;54076;50.322;18.650;2024-02-15T21:21:58;99369.08;;;11.30
47484;BMP280;54076;50.322;18.650;2024-02-15T21:26:58;99365.14;;;11.32
47484;BMP280;54076;50.322;18.650;2024-02-15T21:32:01;99361.92;;;11.32
47484;BMP280;54076;50.322;18.650;2024-02-15T21:37:03;99359.55;;;11.27
47484;BMP280;54076;50.322;18.650;2024-02-15T21:42:04;99356.05;;;11.20
47484;BMP280;54076;50.322;18.650;2024-02-15T21:47:06;99352.66;;;11.21
47484;BMP280;54076;50.322;18.650;2024-02-15T21:52:12;99349.02;;;11.16
47484;BMP280;54076;50.322;18.650;2024-02-15T21:57:14;99346.81;;;11.33
47484;BMP280;54076;50.322;18.650;2024-02-15T22:02:16;99349.38;;;11.39
47484;BMP280;54076;50.322;18.650;2024-02-15T22:07:18;99345.36;;;11.57
47484;BMP280;54076;50.322;18.650;2024-02-15T22:12:20;99349.20;;;11.45
47484;BMP280;54076;50.322;18.650;2024-02-15T22:17:21;99353.45;;;11.55
47484;BMP280;54076;50.322;18.650;2024-02-15T22:22:22;99359.83;;;11.51
47484;BMP280;54076;50.322;18.650;2024-02-15T22:27:23;99357.70;;;11.53
47484;BMP280;54076;50.322;18.650;2024-02-15T22:32:24;99358.38;;;11.52
47484;BMP280;54076;50.322;18.650;2024-02-15T22:37:26;99354.59;;;11.42
47484;BMP280;54076;50.322;18.650;2024-02-15T22:42:27;99347.39;;;11.47
47484;BMP280;54076;50.322;18.650;2024-02-15T22:47:28;99346.85;;;11.45
47484;BMP280;54076;50.322;18.650;2024-02-15T22:52:29;99347.44;;;11.58
47484;BMP280;54076;50.322;18.650;2024-02-15T22:57:30;99351.48;;;11.53
47484;BMP280;54076;50.322;18.650;2024-02-15T23:02:31;99347.15;;;11.73
47484;BMP280;54076;50.322;18.650;2024-02-15T23:07:32;99355.95;;;11.75
47484;BMP280;54076;50.322;18.650;2024-02-15T23:12:33;99354.58;;;11.78
47484;BMP280;54076;50.322;18.650;2024-02-15T23:17:34;99356.34;;;11.84
47484;BMP280;54076;50.322;18.650;2024-02-15T23:22:35;99354.71;;;11.99
47484;BMP280;54076;50.322;18.650;2024-02-15T23:27:36;99353.75;;;12.01
47484;BMP280;54076;50.322;18.650;2024-02-15T23:32:37;99351.16;;;12.02
47484;BMP280;54076;50.322;18.650;2024-02-15T23:37:40;99349.77;;;11.98
47484;BMP280;54076;50.322;18.650;2024-02-15T23:43:00;99344.66;;;12.03
47484;BMP280;54076;50.322;18.650;2024-02-15T23:48:05;99345.73;;;12.10
47484;BMP280;54076;50.322;18.650;2024-02-15T23:53:06;99349.09;;;12.10
47484;BMP280;54076;50.322;18.650;2024-02-15T23:58:07;99345.35;;;12.13
